Syousin Maru — SYOUSIN — position and weather

sailwx.info

Track history (hours):
 
Tides and Currents Weather Stations Pressure Air Temp Water Temp Dewpoint Dewpoint Depression Visibility Wind Speed Wind Dir Waves Ship Positions

Syousin Maru

Last reported at 2018-Feb-25 06:27 UTC. Time now 2018-Feb-25 14:04 UTC.
Position N 35°21' E 139°51'.

Length 13 m.

Type: Fishing. MMSI: 431009531.

Date/timePositionNaut miles runAvg speedWind from/ knotsBaromVisibWave heightAir tempDewpointWater temp
2018-Feb-25 06:27N 35°21' E 139°51'0 0.0
2018-Feb-25 05:08N 35°21' E 139°51'0 0.0
2018-Feb-25 04:48N 35°21' E 139°51'0 0.2
2018-Feb-25 04:22N 35°21' E 139°51'2 5.5
2018-Feb-25 04:00N 35°22' E 139°50'1 2.7
2018-Feb-25 03:30N 35°24' E 139°50'1 2.7
2018-Feb-25 03:00N 35°24' E 139°51'1 2.6
2018-Feb-25 02:29N 35°23' E 139°51'1 2.8
2018-Feb-25 01:59N 35°24' E 139°49'1 2.3
2018-Feb-25 01:28N 35°24' E 139°51'1 2.3
2018-Feb-25 01:00N 35°23' E 139°50'2 3.6
2018-Feb-25 00:30N 35°24' E 139°48'1 2.7
2018-Feb-25 00:00N 35°23' E 139°47'1 2.3
2018-Feb-24 23:30N 35°23' E 139°46'2 3.6
2018-Feb-24 23:00N 35°22' E 139°44'1 2.2
2018-Feb-24 22:30N 35°21' E 139°43'1 2.1
2018-Feb-24 21:59N 35°22' E 139°43'1 2.2
2018-Feb-24 21:30N 35°23' E 139°44'1 2.6
2018-Feb-24 21:00N 35°22' E 139°44'1 1.5
2018-Feb-24 20:28N 35°23' E 139°43'4 7.6
2018-Feb-24 20:00N 35°22' E 139°48'3 0.1
2018-Feb-23 02:04N 35°21' E 139°51'1 6.7
2018-Feb-23 01:55N 35°22' E 139°50'2 3.7
2018-Feb-23 01:30N 35°24' E 139°50'1 2.1
2018-Feb-23 01:00N 35°24' E 139°49'1 2.2
2018-Feb-23 00:30N 35°24' E 139°47'2 3.2
2018-Feb-23 00:00N 35°23' E 139°46'1 2.5
2018-Feb-22 23:30N 35°24' E 139°45'1 2.0
2018-Feb-22 22:58N 35°24' E 139°44'1 2.7
2018-Feb-22 22:30N 35°23' E 139°43'2 3.7
2018-Feb-22 21:58N 35°21' E 139°43'1 2.0
2018-Feb-22 21:30N 35°22' E 139°43'2 3.0
2018-Feb-22 20:57N 35°24' E 139°44'1 2.8
2018-Feb-22 20:30N 35°25' E 139°45'2 4.5
2018-Feb-22 20:00N 35°23' E 139°47'  
Track history (hours):
 
Tides and Currents Weather Stations Pressure Air Temp Water Temp Dewpoint Dewpoint Depression Visibility Wind Speed Wind Dir Waves Ship Positions

Syousin Maru

Last reported at 2018-Feb-25 06:27 UTC. Time now 2018-Feb-25 14:04 UTC.
Position N 35°21' E 139°51'.

Length 13 m.

Type: Fishing. MMSI: 431009531.

Date/timePositionNaut miles runAvg speedWind from/ knotsBaromVisibWave heightAir tempDewpointWater temp
2018-Feb-25 06:27N 35°21' E 139°51'0 0.0
2018-Feb-25 05:08N 35°21' E 139°51'0 0.0
2018-Feb-25 04:48N 35°21' E 139°51'0 0.2
2018-Feb-25 04:22N 35°21' E 139°51'2 5.5
2018-Feb-25 04:00N 35°22' E 139°50'1 2.7
2018-Feb-25 03:30N 35°24' E 139°50'1 2.7
2018-Feb-25 03:00N 35°24' E 139°51'1 2.6
2018-Feb-25 02:29N 35°23' E 139°51'1 2.8
2018-Feb-25 01:59N 35°24' E 139°49'1 2.3
2018-Feb-25 01:28N 35°24' E 139°51'1 2.3
2018-Feb-25 01:00N 35°23' E 139°50'2 3.6
2018-Feb-25 00:30N 35°24' E 139°48'1 2.7
2018-Feb-25 00:00N 35°23' E 139°47'1 2.3
2018-Feb-24 23:30N 35°23' E 139°46'2 3.6
2018-Feb-24 23:00N 35°22' E 139°44'1 2.2
2018-Feb-24 22:30N 35°21' E 139°43'1 2.1
2018-Feb-24 21:59N 35°22' E 139°43'1 2.2
2018-Feb-24 21:30N 35°23' E 139°44'1 2.6
2018-Feb-24 21:00N 35°22' E 139°44'1 1.5
2018-Feb-24 20:28N 35°23' E 139°43'4 7.6
2018-Feb-24 20:00N 35°22' E 139°48'3 0.1
2018-Feb-23 02:04N 35°21' E 139°51'1 6.7
2018-Feb-23 01:55N 35°22' E 139°50'2 3.7
2018-Feb-23 01:30N 35°24' E 139°50'1 2.1
2018-Feb-23 01:00N 35°24' E 139°49'1 2.2
2018-Feb-23 00:30N 35°24' E 139°47'2 3.2
2018-Feb-23 00:00N 35°23' E 139°46'1 2.5
2018-Feb-22 23:30N 35°24' E 139°45'1 2.0
2018-Feb-22 22:58N 35°24' E 139°44'1 2.7
2018-Feb-22 22:30N 35°23' E 139°43'2 3.7
2018-Feb-22 21:58N 35°21' E 139°43'1 2.0
2018-Feb-22 21:30N 35°22' E 139°43'2 3.0
2018-Feb-22 20:57N 35°24' E 139°44'1 2.8
2018-Feb-22 20:30N 35°25' E 139°45'2 4.5
2018-Feb-22 20:00N 35°23' E 139°47'  

Dump ship's entire track history